Hoppa till innehåll

METAR väder och rapporter - LSZH

Nedan listas information från vald flygplats. Andra METARs finns längre ned på sidan. Kontakta oss om någon saknas eller skriv in egen ICAO-kod.

Coded METAR: 2022/05/17 14:20 LSZH 171420Z 06004KT 330V130 9999 FEW060 25/08 Q1020 NOSIG

Weather Report @ LSZH

Issued: 17th May 2022 at 16:20 CEST

Wind: light breeze from East-North East (060 degrees) at 4 knots (5 mph, 7 kph, 2 mps, Force 2)
Wind: direction varying between from North-Northwest (330 degrees) and from the Southeast (130 degrees)
Visibility: 10km or more
Cloud: a few clouds at 6000 feet
Temperature: 77F / 25C
Dewpoint: 46F / 8C
Humidity: 34%
Pressure: 1020 hPa
Weather: no significant change expected

Coded TAF: 2022/05/17 15:33 TAF LSZH 171425Z 1715/1821 05007KT 9999 FEW055 TX26/1715Z TN11/1804Z TX28/1815Z BECMG 1717/1720 VRB02KT CAVOK BECMG 1808/1810 05007KT TEMPO 1810/1817 9999 FEW040

Weather Forecast @ LSZH

Issued: 17th May 2022 at 17:33 CEST

Valid : 17th May 17:00 until 18th May 23:00 CEST

17:00 CEST
Wind: gentle breeze from the Northeast (050 degrees) at 7 knots (8 mph, 13 kph, 4 mps, Force 3)
Visibility: 10km or more
Cloud: a few clouds at 5500 feet
Max. Temp: 79F / 26C at 19:00 CEST
Min. Temp: 52F / 11C at 20:00 CEST
Max. Temp: 82F / 28C at 20:00 CEST

19:00 CEST to 22:00 CEST
becoming:

Wind: variable light air at 2 knots (2 mph, 4 kph, 1 mps, Force 1)
Weather: good visibility and no low cloud (ceiling and visibility OK)

10:00 CEST to 12:00 CEST
becoming:

Wind: gentle breeze from the Northeast (050 degrees) at 7 knots (8 mph, 13 kph, 4 mps, Force 3)

12:00 CEST to 19:00 CEST
Occasional

Visibility: 10km or more
Cloud: a few clouds at 4000 feet

Internet delivery of weather data is not secure or reliable enough for operational purposes.

NEVER RELY ON THE OUTPUT OF THIS SCRIPT TO MAKE DECISIONS ABOUT ANYTHING IN WHICH THE WEATHER FORECAST AND ITS INTERPRETATION COULD BE AN ISSUE OF SAFETY.

Andra intressanta METARs

Klicka på önskad rubrik nedan för att visa nuvarande väder för den platsen.

Avstånd från stationen: NO 27kmESGG - Göteborg (Landvetter)
Uppdaterad: 2022-05-17 16:20
 Vind från NNO
Vind: NNO 15 km/h
Temperatur: 18°C
Daggpunkt: -3°C
Luftfuktighet: 24%
Barometer: 1024 hPa
Summering: Klart
Sikt: mer än 10 km
2022/05/17 14:20 ESGG 171420Z 03008KT 360V060 CAVOK 18/M03 Q1024
Klart
Klart
  Visa detaljer för Göteborg (Landvetter)
Avstånd från stationen: N 28kmESGP - Göteborg (Säve)
Uppdaterad: 2022-05-17 16:20
 Vind från NNO
Vind: NNO 15 km/h
Temperatur: 18°C
Daggpunkt: -5°C
Luftfuktighet: 21%
Barometer: 1024 hPa
Summering: Klart
Sikt: mer än 10 km
2022/05/17 14:20 ESGP 171420Z 03008KT 350V060 CAVOK 18/M05 Q1024
Klart
Klart
  Visa detaljer för Göteborg (Säve)
Avstånd från stationen: NO 419kmESSA - Stockholm (Arlanda)
Uppdaterad: 2022-05-17 16:20
 Vind från N
Vind: N 15 km/h
Temperatur: 10°C
Vindavkylning: 8°C
Daggpunkt: -3°C
Luftfuktighet: 40%
Barometer: 1026 hPa
Summering: Klart
Sikt: mer än 10 km
2022/05/17 14:20 ESSA 171420Z 35008KT 310V030 CAVOK 10/M03 Q1026 NOSIG
Klart
Klart
  Visa detaljer för Stockholm (Arlanda)
Avstånd från stationen: ONO 404kmESSB - Stockholm (Bromma)
Uppdaterad: 2022-05-17 16:20
 Vind från N
Vind: N 11 km/h
Temperatur: 12°C
Daggpunkt: -2°C
Luftfuktighet: 38%
Barometer: 1026 hPa
Summering: Klart
Sikt: mer än 10 km
2022/05/17 14:20 ESSB 171420Z 36006KT 320V050 CAVOK 12/M02 Q1026
Klart
Klart
  Visa detaljer för Stockholm (Bromma)
Avstånd från stationen: ONO 323kmESKN - Stockholm (Skavsta)
Uppdaterad: 2022-05-17 16:20
 Vind från N
Vind: N 9 km/h
Temperatur: 14°C
Daggpunkt: -2°C
Luftfuktighet: 33%
Barometer: 1026 hPa
Summering: Klart
Sikt: mer än 10 km
2022/05/17 14:20 ESKN 171420Z 36005KT 280V070 CAVOK 14/M02 Q1026
Klart
Klart
  Visa detaljer för Stockholm (Skavsta)
Avstånd från stationen: SSO 238kmESMS - Malmö flygplats (Sturup)
Uppdaterad: 2022-05-17 16:20
 Vind från OSO
Vind: OSO 19 km/h
Temperatur: 16°C
Daggpunkt: 0°C
Luftfuktighet: 34%
Barometer: 1024 hPa
Summering: Klart
Sikt: mer än 10 km
2022/05/17 14:20 ESMS 171420Z 12010KT 090V150 CAVOK 16/M00 Q1024
Klart
Klart
  Visa detaljer för Malmö flygplats (Sturup)
Avstånd från stationen: O 382kmESSV - Visby flygplats
Uppdaterad: 2022-05-17 16:20
 Vind från N
Vind: N 20 km/h
Temperatur: 11°C
Daggpunkt: -1°C
Luftfuktighet: 44%
Barometer: 1026 hPa
Summering: Klart
Sikt: mer än 10 km
2022/05/17 14:20 ESSV 171420Z 35011KT CAVOK 11/M01 Q1026
Klart
Klart
  Visa detaljer för Visby flygplats
Avstånd från stationen: NNO 92kmESGT - Trollhättan
Uppdaterad: 2022-05-17 16:20
 Vind från N
Vind: N 19 km/h
Temperatur: 14°C
Daggpunkt: -6°C
Luftfuktighet: 25%
Barometer: 1026 hPa
Summering: Klart
Sikt: mer än 10 km
2022/05/17 14:20 ESGT 171420Z 01010KT CAVOK 14/M06 Q1026
Klart
Klart
  Visa detaljer för Trollhättan
Avstånd från stationen: ONO 129kmESGJ - Jönköpings flygplats
Uppdaterad: 2022-05-17 16:20
 Vind från NNO
Vind: NNO 15 km/h
Temperatur: 14°C
Daggpunkt: -5°C
Luftfuktighet: 27%
Barometer: 1025 hPa
Summering: Klart
Sikt: mer än 10 km
2022/05/17 14:20 ESGJ 171420Z 03008KT CAVOK 14/M05 Q1025
Klart
Klart
  Visa detaljer för Jönköpings flygplats
Avstånd från stationen: NNO 229kmESOK - Karlstad
Uppdaterad: 2022-05-17 16:20
 Vind från S
Vind: S 11 km/h
Temperatur: 15°C
Daggpunkt: -2°C
Luftfuktighet: 31%
Barometer: 1025 hPa
Summering: Klart
Sikt: mer än 10 km
2022/05/17 14:20 ESOK 171420Z 19006KT 140V220 CAVOK 15/M02 Q1025
Klart
Klart
  Visa detaljer för Karlstad
Avstånd från stationen: N 643kmESNZ - Östersund (Frösön)
Uppdaterad: 2022-05-17 16:20
 Vind från NV
Vind: NV 9 km/h
Temperatur: 13°C
Daggpunkt: -6°C
Luftfuktighet: 26%
Barometer: 1023 hPa
Summering: Klart
Sikt: mer än 10 km
2022/05/17 14:20 ESNZ 171420Z 31005KT 280V030 CAVOK 13/M06 Q1023
Klart
Klart
  Visa detaljer för Östersund (Frösön)
Avstånd från stationen: SSO 216kmEKCH - Köpenhamn (Kastrup)
Uppdaterad: 2022-05-17 16:20
 Vind från SSO
Vind: SSO 19 km/h
Temperatur: 17°C
Daggpunkt: 2°C
Luftfuktighet: 37%
Barometer: 1024 hPa
Moln: Klart
Sikt: 10 km
2022/05/17 14:20 EKCH 171420Z AUTO 15010KT 9999 NCD 17/02 Q1024 NOSIG
Klart
Klart
  Visa detaljer för Köpenhamn (Kastrup)
Avstånd från stationen: SV 263kmEKBI - Billund Airport
Uppdaterad: 2022-05-17 16:20
 Vind från O
Vind: O 22 km/h
Temperatur: 18°C
Daggpunkt: 7°C
Luftfuktighet: 49%
Barometer: 1022 hPa
Moln: Klart
Sikt: 10 km
2022/05/17 14:20 EKBI 171420Z AUTO 09012KT 9999 NCD 18/07 Q1022
Klart
Klart
  Visa detaljer för Billund Airport
Avstånd från stationen: N 302kmENGM - Oslo (Gardermoen)
Uppdaterad: 2022-05-17 16:20
 Vind från SSV
Vind: SSV 11 km/h
Temperatur: 16°C
Daggpunkt: -4°C
Luftfuktighet: 25%
Barometer: 1025 hPa
Summering: Klart
Sikt: mer än 10 km
2022/05/17 14:20 ENGM 171420Z 20006KT 150V250 CAVOK 16/M04 Q1025 NOSIG
Klart
Klart
  Visa detaljer för Oslo (Gardermoen)
Avstånd från stationen: NO 540kmEFMA - Mariehamn / Åland
Uppdaterad: 2022-05-17 16:20
 Vind från N
Vind: N 22 km/h
Temperatur: 7°C
Vindavkylning: 4°C
Daggpunkt: 0°C
Luftfuktighet: 61%
Barometer: 1026 hPa
Summering: Klart
Sikt: mer än 10 km
2022/05/17 14:20 EFMA 171420Z AUTO 35012KT 320V020 CAVOK 07/M00 Q1026
Klart
Klart
  Visa detaljer för Mariehamn / Åland
Avstånd från stationen: S 558kmEDDT - Berlin (Tegel), Germany
Uppdaterad: 2020-11-09 07:50
Ej aktuell
 Vind från O
Vind: O 11 km/h
Temperatur: 6°C
Vindavkylning: 4°C
Daggpunkt: 5°C
Luftfuktighet: 93%
Barometer: 1027 hPa
Summering: Dimmigt
Moln: Genommulet
Sikt: 3 km
Molninformation: Genommulet 91 m
2020/11/09 06:50 EDDT 090650Z 09006KT 050V120 3000 BR OVC003 06/05 Q1027
Dimmigt, Genommulet
Dimmigt
Genommulet
  Visa detaljer för Berlin (Tegel), Germany
Avstånd från stationen: SV 737kmEHAM - Amsterdam (Schiphol)
Uppdaterad: 2022-05-17 16:25
 Vind från NO
Vind: NO 15 km/h
Temperatur: 23°C
Daggpunkt: 15°C
Luftfuktighet: 61%
Barometer: 1018 hPa
Moln: Några få moln
Sikt: 10 km
Molninformation: Några få moln 1158 m
2022/05/17 14:25 EHAM 171425Z 05008KT 020V080 9999 FEW038 23/15 Q1018 NOSIG
Några få moln
Några få moln
  Visa detaljer för Amsterdam (Schiphol)
Avstånd från stationen: ONO 808kmEFHK - Helsingfors (Vantaa)
Uppdaterad: 2022-05-17 16:20
 Vind från NNV
Vind: NNV 22 km/h
Temperatur: 11°C
Daggpunkt: 1°C
Luftfuktighet: 50%
Barometer: 1020 hPa
Moln: Övervägande molnigt
Sikt: 10 km
Molninformation: Övervägande molnigt 1341 m
2022/05/17 14:20 EFHK 171420Z 34012KT 310V010 9999 BKN044 11/01 Q1020 NOSIG
Övervägande molnigt
Övervägande molnigt
  Visa detaljer för Helsingfors (Vantaa)
Avstånd från stationen: SSV 537kmEDDW - Bremen
Uppdaterad: 2022-05-17 16:20
 Vind från varierande
Vind: varierande 9 km/h
Temperatur: 24°C
Daggpunkt: 11°C
Luftfuktighet: 44%
Barometer: 1019 hPa
Summering: Klart
Sikt: mer än 10 km
2022/05/17 14:20 EDDW 171420Z AUTO VRB05KT CAVOK 24/11 Q1019 BECMG 33005KT
Klart
Klart
  Visa detaljer för Bremen
Avstånd från stationen: SSV 861kmEDDF - Frankfurt am Main
Uppdaterad: 2022-05-17 16:20
 Vind från OSO
Vind: OSO 11 km/h
Temperatur: 26°C
Daggpunkt: 10°C
Luftfuktighet: 37%
Barometer: 1020 hPa
Summering: Klart
Sikt: mer än 10 km
2022/05/17 14:20 EDDF 171420Z 11006KT 030V190 CAVOK 26/10 Q1020 NOSIG
Klart
Klart
  Visa detaljer för Frankfurt am Main
Avstånd från stationen: SV 880kmEBBR - Bryssel international
Uppdaterad: 2022-05-17 16:20
 Vind från SV
Vind: SV 15 km/h
Temperatur: 26°C
Daggpunkt: 6°C
Luftfuktighet: 28%
Barometer: 1018 hPa
Summering: Klart
Sikt: mer än 10 km
2022/05/17 14:20 EBBR 171420Z 22008KT 180V260 CAVOK 26/06 Q1018 NOSIG
Klart
Klart
  Visa detaljer för Bryssel international
Avstånd från stationen: SV 738kmEHAM - Amsterdam (Schiphol)
Uppdaterad: 2022-05-17 16:25
 Vind från NO
Vind: NO 15 km/h
Temperatur: 23°C
Daggpunkt: 15°C
Luftfuktighet: 61%
Barometer: 1018 hPa
Moln: Några få moln
Sikt: 10 km
Molninformation: Några få moln 1158 m
2022/05/17 14:25 EHAM 171425Z 05008KT 020V080 9999 FEW038 23/15 Q1018 NOSIG
Några få moln
Några få moln
  Visa detaljer för Amsterdam (Schiphol)
Avstånd från stationen: SV 1044kmEGLL - London (Heathrow)
Uppdaterad: 2022-05-17 16:20
 Vind från SSO
Vind: SSO 24 km/h
Temperatur: 26°C
Daggpunkt: 11°C
Luftfuktighet: 39%
Barometer: 1016 hPa
Moln: Klart
Sikt: 10 km
2022/05/17 14:20 EGLL 171420Z AUTO 16013KT 9999 NCD 26/11 Q1016 NOSIG
Klart
Klart
  Visa detaljer för London (Heathrow)
Avstånd från stationen: SV 1132kmLFPG - Paris (Charles de Gaulle)
Uppdaterad: 2022-05-17 16:00
 Vind från SSO
Vind: SSO 13 km/h
Temperatur: 28°C
Värmeindex: 27°C
Daggpunkt: 13°C
Luftfuktighet: 40%
Barometer: 1018 hPa
Summering: Klart
Sikt: mer än 10 km
2022/05/17 14:00 LFPG 171400Z 16007KT 080V240 CAVOK 28/13 Q1018 NOSIG
Klart
Klart
  Visa detaljer för Paris (Charles de Gaulle)
Avstånd från stationen: SSV 1142kmLSZH - Zürich Airport
Uppdaterad: 2022-05-17 16:20
 Vind från ONO
Vind: ONO 7 km/h
Temperatur: 25°C
Daggpunkt: 8°C
Luftfuktighet: 34%
Barometer: 1020 hPa
Moln: Några få moln
Sikt: 10 km
Molninformation: Några få moln 1829 m
2022/05/17 14:20 LSZH 171420Z 06004KT 330V130 9999 FEW060 25/08 Q1020 NOSIG
Några få moln
Några få moln
  Visa detaljer för Zürich Airport
Avstånd från stationen: S 1749kmLIRF - Rome Airport (Fiumicino - Leonardo da Vinci)
Uppdaterad: 2022-05-17 16:20
 Vind från V
Vind: V 20 km/h
Temperatur: 24°C
Daggpunkt: 16°C
Luftfuktighet: 61%
Barometer: 1017 hPa
Summering: Klart
Sikt: mer än 10 km
2022/05/17 14:20 LIRF 171420Z 28011KT CAVOK 24/16 Q1017 NOSIG
Klart
Klart
  Visa detaljer för Rome Airport (Fiumicino - Leonardo da Vinci)
Avstånd från stationen: SO 2679kmLTAI - Antalya
Uppdaterad: 2022-05-17 15:50
 Vind från OSO
Vind: OSO 11 km/h
Temperatur: 24°C
Daggpunkt: 18°C
Luftfuktighet: 69%
Barometer: 1013 hPa
Moln: Några få moln
Sikt: 10 km
Molninformation: Några få moln 610 m
2022/05/17 13:50 LTAI 171350Z 12006KT 090V150 9999 FEW020CB 24/18 Q1013 TEMPO -TSRA
Några få moln
Några få moln
  Visa detaljer för Antalya
Avstånd från stationen: VSV 6074kmKJFK - New Your (JFK)
Uppdaterad: 2022-05-17 15:51
 Vind från VSV
Vind: VSV 24 km/h
Temperatur: 19°C
Daggpunkt: 11°C
Luftfuktighet: 60%
Barometer: 1008.8 hPa
Moln: Några få moln
Sikt: 16 km
Molninformation: Några få moln 1524 m
Några få moln 6706 m
2022/05/17 13:51 KJFK 171351Z 24013KT 10SM FEW050 FEW220 19/11 A2979 RMK AO2 SLP086 T01940111
Några få moln
Några få moln
  Visa detaljer för New Your (JFK)
Avstånd från stationen: VSV 8848kmKLAX - Los Angeles International Airport
Uppdaterad: 2022-05-17 15:53
 Vind från SO
Vind: SO 11 km/h
Temperatur: 16°C
Daggpunkt: 12°C
Luftfuktighet: 77%
Barometer: 1014.9 hPa
Moln: Genommulet
Sikt: 13 km
Molninformation: Några få moln 274 m
Genommulet 518 m
2022/05/17 13:53 KLAX 171353Z 13006KT 8SM FEW009 OVC017 16/12 A2997 RMK AO2 SLP146 T01610117
Genommulet
Genommulet
  Visa detaljer för Los Angeles International Airport
Avstånd från stationen: SO 4968kmOMDB - Dubai International Airport
Uppdaterad: 2022-05-17 16:16
 Vind från V
Vind: V 15 km/h
Temperatur: 32°C
Värmeindex: 34°C
Daggpunkt: 20°C
Luftfuktighet: 49%
Barometer: 1001 hPa
Summering: Widespread Dust
Moln: Delvis molnigt
Sikt: 4 km
2022/05/17 14:16 OMDB 171416Z 28008KT 4000 DU NSC 32/20 Q1001 BECMG 2000
Widespread dust, Delvis molnigt
Widespread dust
Delvis molnigt
  Visa detaljer för Dubai International Airport
Avstånd från stationen: OSO 8570kmRJTT - Tokyo International Airport
Uppdaterad: 2022-05-17 16:00
 Vind från V
Vind: V 6 km/h
Moln: Några få moln
Sikt: 10 km
Molninformation: Några få moln 457 m
2022/05/17 14:00 RJTT 171400Z 28003KT 9999 FEW015 BKN/// 16/15 Q1017 NOSIG
Några få moln
Några få moln
  Visa detaljer för Tokyo International Airport
Avstånd från stationen: OSO 7125kmZBAA - Peking (Beijing Capital)
Uppdaterad: 2022-05-17 16:00
 Vind från varierande
Vind: varierande 4 km/h
Temperatur: 17°C
Daggpunkt: 12°C
Luftfuktighet: 73%
Barometer: 1006 hPa
Summering: Klart
Sikt: mer än 10 km
2022/05/17 14:00 ZBAA 171400Z VRB01MPS CAVOK 17/12 Q1006 NOSIG
Klart
Klart
  Visa detaljer för Peking (Beijing Capital)
VÄDER KURIOSA -  RainThe total amount of precipitation the earth receives each year as snow, hail, and rain is equivalent to 10 million gallons of water for every person in the United States.